This is the latest recevied weather packets stored in our database for station/object W7TRD. If no packets are shown the sender has not sent any weather packets the latest 10 day(s).
| Time | Temp. | Humidity | Pressure | Rain* | Wind** | Luminosity | Snow |
|---|---|---|---|---|---|---|---|
| 1788475412 | 17.78° C | 69% | 1011.1 hPa | 0 mm | - | 183 W/m² | - |
| 1788475108 | 17.78° C | 70% | 1011.2 hPa | 0 mm | - | 226 W/m² | - |
| 1788474806 | 17.22° C | 70% | 1011.2 hPa | 0 mm | - | 263 W/m² | - |
| 1788474501 | 17.22° C | 68% | 1011 hPa | 0 mm | - | 123 W/m² | - |
| 1788474200 | 17.22° C | 67% | 1011 hPa | 0 mm | - | 167 W/m² | - |
| 1788473895 | 17.22° C | 66% | 1011.1 hPa | 0 mm | - | 256 W/m² | - |
| 1788473594 | 17.22° C | 67% | 1011.1 hPa | 0 mm | - | 282 W/m² | - |
| 1788473292 | 16.67° C | 68% | 1011.2 hPa | 0 mm | - | 323 W/m² | - |
| 1788472987 | 16.67° C | 67% | 1011.2 hPa | 0 mm | - | 263 W/m² | - |
| 1788472685 | 16.67° C | 67% | 1011 hPa | 0 mm | - | 203 W/m² | - |
| 1788472382 | 16.67° C | 68% | 1011.2 hPa | 0 mm | - | 206 W/m² | - |
| 1788472080 | 16.67° C | 71% | 1011.1 hPa | 0 mm | - | 221 W/m² | - |
| 1788471776 | 16.67° C | 72% | 1011.1 hPa | 0 mm | - | 207 W/m² | - |
| 1788471476 | 16.67° C | 73% | 1011.3 hPa | 0 mm | - | 203 W/m² | - |
| 1788471172 | 16.67° C | 73% | 1011.1 hPa | 0 mm | - | 166 W/m² | - |
| 1788470868 | 16.67° C | 72% | 1011.2 hPa | 0 mm | - | 163 W/m² | - |
| 1788470565 | 16.67° C | 72% | 1011.2 hPa | 0 mm | - | 200 W/m² | - |
| 1788470263 | 16.67° C | 69% | 1011.1 hPa | 0 mm | - | 174 W/m² | - |
| 1788469960 | 16.67° C | 68% | 1011.1 hPa | 0 mm | - | 204 W/m² | - |
| 1788469655 | 16.67° C | 70% | 1010.9 hPa | 0 mm | - | 201 W/m² | - |
| 1788469351 | 16.67° C | 70% | 1011 hPa | 0 mm | - | 180 W/m² | - |
| 1788469050 | 16.67° C | 69% | 1010.8 hPa | 0 mm | - | 186 W/m² | - |
| 1788468749 | 17.22° C | 68% | 1011 hPa | 0 mm | - | 188 W/m² | - |
| 1788468445 | 17.22° C | 67% | 1010.9 hPa | 0 mm | - | 214 W/m² | - |
| 1788468141 | 17.22° C | 67% | 1011.2 hPa | 0 mm | - | 309 W/m² | - |
* Rain latest hour (hover to see other rain measurements)
** Current wind speed in m/s (hover to see current wind gust speed)